Time;durP1;ratioP1;P1;durP2;ratioP2;P2;SDS_P1;SDS_P2;PMS_P1;PMS_P2;Temp;Humidity;BMP_temperature;BMP_pressure;BME280_temperature;BME280_humidity;BME280_pressure;Samples;Min_cycle;Max_cycle;Signal;HPM_P1;HPM_P2
2021/05/12 00:02:11;;;;;;;8.98;5.65;;;;;;;;;;6157405;23;20009;-62
2021/05/12 00:04:37;;;;;;;8.23;5.57;;;;;;;;;;6157400;23;20076;-62
2021/05/12 00:07:04;;;;;;;10.27;5.97;;;;;;;;;;6157456;23;20448;-62
2021/05/12 00:09:31;;;;;;;9.32;6.18;;;;;;;;;;6157400;23;20337;-61
2021/05/12 00:11:58;;;;;;;7.47;5.90;;;;;;;;;;6157300;23;19997;-62
2021/05/12 00:14:25;;;;;;;6.70;5.68;;;;;;;;;;6157319;23;20033;-62
2021/05/12 00:16:53;;;;;;;9.68;5.75;;;;;;;;;;6155881;23;20009;-62
2021/05/12 00:19:21;;;;;;;8.80;5.97;;;;;;;;;;6157380;23;20009;-62
2021/05/12 00:21:57;;;;;;;8.18;5.72;;;;;;;;;;6157379;23;20001;-62
2021/05/12 00:24:24;;;;;;;9.60;6.78;;;;;;;;;;6157304;23;20021;-62
2021/05/12 00:26:50;;;;;;;7.85;6.07;;;;;;;;;;6157337;23;19998;-61
2021/05/12 00:29:17;;;;;;;8.45;5.95;;;;;;;;;;6157185;23;20011;-62
2021/05/12 00:31:44;;;;;;;8.80;6.00;;;;;;;;;;6157245;23;20099;-62
2021/05/12 00:34:11;;;;;;;9.23;5.97;;;;;;;;;;6157221;23;20005;-61
2021/05/12 00:36:38;;;;;;;6.80;5.88;;;;;;;;;;6157286;23;19998;-62
2021/05/12 00:39:06;;;;;;;8.80;5.53;;;;;;;;;;6157078;23;20009;-61
2021/05/12 00:41:48;;;;;;;9.93;5.90;;;;;;;;;;6157089;23;20417;-62
2021/05/12 00:44:19;;;;;;;6.77;5.87;;;;;;;;;;6157729;23;20316;-62
2021/05/12 00:46:50;;;;;;;7.37;5.20;;;;;;;;;;6157236;23;20364;-62
2021/05/12 00:49:18;;;;;;;7.57;5.43;;;;;;;;;;6158450;23;20021;-62
2021/05/12 00:51:45;;;;;;;8.80;5.70;;;;;;;;;;6156984;23;20009;-61
2021/05/12 00:54:12;;;;;;;9.27;5.97;;;;;;;;;;6157003;23;20002;-62
2021/05/12 00:56:41;;;;;;;6.83;5.83;;;;;;;;;;6156966;23;20006;-62
2021/05/12 00:59:08;;;;;;;8.60;6.10;;;;;;;;;;6156993;23;20009;-61
2021/05/12 01:01:36;;;;;;;8.00;5.63;;;;;;;;;;6156751;23;20006;-62
2021/05/12 01:04:03;;;;;;;7.30;5.93;;;;;;;;;;6156672;23;20020;-62
2021/05/12 01:06:34;;;;;;;8.43;6.27;;;;;;;;;;6156731;23;20006;-62
2021/05/12 01:09:00;;;;;;;7.80;6.20;;;;;;;;;;6156831;23;20005;-61
2021/05/12 01:11:27;;;;;;;8.17;6.20;;;;;;;;;;6156926;23;19998;-62
2021/05/12 01:13:55;;;;;;;11.20;6.83;;;;;;;;;;6156841;23;20032;-62
2021/05/12 01:16:21;;;;;;;8.40;6.10;;;;;;;;;;6156793;23;20492;-61
2021/05/12 01:18:48;;;;;;;11.73;5.80;;;;;;;;;;6156819;23;20328;-61
2021/05/12 01:21:16;;;;;;;9.20;6.00;;;;;;;;;;6156549;23;20002;-61
2021/05/12 01:23:44;;;;;;;10.57;5.60;;;;;;;;;;6156915;23;20009;-61
2021/05/12 01:26:13;;;;;;;10.63;6.03;;;;;;;;;;6156696;23;20325;-61
2021/05/12 01:28:44;;;;;;;8.67;5.67;;;;;;;;;;6156617;23;20386;-61
2021/05/12 01:31:21;;;;;;;8.27;5.47;;;;;;;;;;6156837;23;19997;-61
2021/05/12 01:33:51;;;;;;;7.17;5.80;;;;;;;;;;6156585;23;20281;-61
2021/05/12 01:36:19;;;;;;;13.57;5.80;;;;;;;;;;6156665;23;20037;-61
2021/05/12 01:38:47;;;;;;;8.13;5.83;;;;;;;;;;6156512;23;20010;-61
2021/05/12 01:41:14;;;;;;;7.70;6.07;;;;;;;;;;6155200;23;20039;-62
2021/05/12 01:43:44;;;;;;;8.97;6.47;;;;;;;;;;6157043;23;20387;-61
2021/05/12 01:46:11;;;;;;;11.10;7.30;;;;;;;;;;6156595;23;20002;-61
2021/05/12 01:48:38;;;;;;;8.97;7.20;;;;;;;;;;6157869;23;20025;-62
2021/05/12 01:51:08;;;;;;;14.60;7.33;;;;;;;;;;6156527;23;20021;-62
2021/05/12 01:53:35;;;;;;;8.23;6.17;;;;;;;;;;6156514;23;20332;-62
2021/05/12 01:56:02;;;;;;;8.00;6.80;;;;;;;;;;6156601;23;20008;-62
2021/05/12 01:58:29;;;;;;;12.43;7.13;;;;;;;;;;6156522;23;20002;-62
2021/05/12 02:00:56;;;;;;;9.97;7.43;;;;;;;;;;6156296;23;20008;-62
2021/05/12 02:03:24;;;;;;;9.57;6.83;;;;;;;;;;6156284;23;20049;-61
2021/05/12 02:05:52;;;;;;;10.27;7.70;;;;;;;;;;6156276;23;20362;-61
2021/05/12 02:08:22;;;;;;;9.83;7.17;;;;;;;;;;6156145;23;20341;-61
2021/05/12 02:11:07;;;;;;;9.97;7.70;;;;;;;;;;6156355;23;20008;-61
2021/05/12 02:13:35;;;;;;;9.63;7.28;;;;;;;;;;6156408;23;20005;-61
2021/05/12 02:16:03;;;;;;;10.03;7.87;;;;;;;;;;6155772;23;20326;-61
2021/05/12 02:18:30;;;;;;;14.37;7.93;;;;;;;;;;6156052;23;20005;-61
2021/05/12 02:20:57;;;;;;;9.73;7.07;;;;;;;;;;6156162;23;20006;-61
2021/05/12 02:23:25;;;;;;;13.27;8.03;;;;;;;;;;6155941;23;20429;-61
2021/05/12 02:25:52;;;;;;;9.07;7.27;;;;;;;;;;6156167;23;20004;-61
2021/05/12 02:28:18;;;;;;;12.60;8.47;;;;;;;;;;6155914;23;20488;-61
2021/05/12 02:30:46;;;;;;;10.37;7.07;;;;;;;;;;6155993;23;20436;-61
2021/05/12 02:33:13;;;;;;;10.13;8.17;;;;;;;;;;6155936;23;20025;-61
2021/05/12 02:35:40;;;;;;;13.63;8.80;;;;;;;;;;6156184;23;20451;-61
2021/05/12 02:38:08;;;;;;;15.07;8.60;;;;;;;;;;6156008;23;20002;-61
2021/05/12 02:40:35;;;;;;;10.37;7.80;;;;;;;;;;6155925;23;20306;-61
2021/05/12 02:43:02;;;;;;;11.73;7.90;;;;;;;;;;6156247;23;20092;-61
2021/05/12 02:45:31;;;;;;;13.60;7.93;;;;;;;;;;6156083;23;20248;-60
2021/05/12 02:47:58;;;;;;;11.47;8.67;;;;;;;;;;6157083;23;20329;-61
2021/05/12 02:50:26;;;;;;;11.57;8.63;;;;;;;;;;6155982;23;20009;-61
2021/05/12 02:52:53;;;;;;;11.77;8.60;;;;;;;;;;6155980;23;20118;-61
2021/05/12 02:55:20;;;;;;;10.33;8.00;;;;;;;;;;6155772;23;20006;-61
2021/05/12 02:57:47;;;;;;;13.40;8.97;;;;;;;;;;6155737;23;20313;-61
2021/05/12 03:00:15;;;;;;;14.47;8.83;;;;;;;;;;6155705;23;20014;-61
2021/05/12 03:02:42;;;;;;;9.80;8.70;;;;;;;;;;6155639;23;20024;-61
2021/05/12 03:05:09;;;;;;;11.67;7.80;;;;;;;;;;6155770;23;20024;-61
2021/05/12 03:07:36;;;;;;;12.20;9.10;;;;;;;;;;6155682;23;20016;-61
2021/05/12 03:10:05;;;;;;;14.30;9.10;;;;;;;;;;6155665;23;20368;-61
2021/05/12 03:12:32;;;;;;;13.10;9.33;;;;;;;;;;6155780;23;20369;-61
2021/05/12 03:14:59;;;;;;;21.40;10.70;;;;;;;;;;6155627;23;20060;-61
2021/05/12 03:17:34;;;;;;;12.97;10.07;;;;;;;;;;6155527;23;20044;-61
2021/05/12 03:20:01;;;;;;;15.57;9.70;;;;;;;;;;6155597;23;20072;-62
2021/05/12 03:22:28;;;;;;;13.00;10.87;;;;;;;;;;6155582;23;20009;-63
2021/05/12 03:24:54;;;;;;;14.13;9.47;;;;;;;;;;6155699;23;20029;-61
2021/05/12 03:27:21;;;;;;;13.53;7.63;;;;;;;;;;6155555;23;20006;-62
2021/05/12 03:29:48;;;;;;;11.43;7.63;;;;;;;;;;6155531;23;20037;-62
2021/05/12 03:32:15;;;;;;;13.03;7.80;;;;;;;;;;6155477;23;20060;-62
2021/05/12 03:34:41;;;;;;;13.37;8.67;;;;;;;;;;6155672;23;20028;-62
2021/05/12 03:37:08;;;;;;;13.03;7.87;;;;;;;;;;6155536;23;20002;-62
2021/05/12 03:39:35;;;;;;;11.10;8.00;;;;;;;;;;6155570;23;20448;-61
2021/05/12 03:42:02;;;;;;;14.50;9.23;;;;;;;;;;6155428;23;20404;-61
2021/05/12 03:44:29;;;;;;;17.10;9.00;;;;;;;;;;6155568;23;19997;-63
2021/05/12 03:46:55;;;;;;;18.27;9.43;;;;;;;;;;6155277;23;20013;-61
2021/05/12 03:49:35;;;;;;;25.47;10.27;;;;;;;;;;6157160;23;20044;-64
2021/05/12 03:52:02;;;;;;;27.77;12.10;;;;;;;;;;6155410;23;20017;-66
2021/05/12 03:54:29;;;;;;;20.50;9.87;;;;;;;;;;6155504;23;20005;-62
2021/05/12 03:56:56;;;;;;;16.87;10.40;;;;;;;;;;6155492;23;20002;-61
2021/05/12 03:59:23;;;;;;;27.00;12.10;;;;;;;;;;6154026;23;20060;-61
2021/05/12 04:01:50;;;;;;;20.03;11.27;;;;;;;;;;6155270;23;20081;-60
2021/05/12 04:04:17;;;;;;;20.67;11.60;;;;;;;;;;6155473;23;20007;-61
2021/05/12 04:06:48;;;;;;;21.07;10.53;;;;;;;;;;6185090;23;20323;-61
2021/05/12 04:09:15;;;;;;;20.60;11.60;;;;;;;;;;6184880;23;20324;-61
2021/05/12 04:11:45;;;;;;;16.20;10.60;;;;;;;;;;6185156;23;20055;-62
2021/05/12 04:14:12;;;;;;;13.57;9.07;;;;;;;;;;6184655;23;20005;-61
2021/05/12 04:16:39;;;;;;;16.83;9.83;;;;;;;;;;6184975;23;20016;-61
2021/05/12 04:19:06;;;;;;;17.30;10.00;;;;;;;;;;6185059;23;20413;-61
2021/05/12 04:21:33;;;;;;;15.00;10.27;;;;;;;;;;6184980;23;20005;-61
2021/05/12 04:23:59;;;;;;;12.60;8.67;;;;;;;;;;6185102;23;20368;-61
2021/05/12 04:26:26;;;;;;;10.87;7.90;;;;;;;;;;6184793;23;20008;-60
2021/05/12 04:28:53;;;;;;;14.67;8.33;;;;;;;;;;6184806;23;20009;-61
2021/05/12 04:31:20;;;;;;;18.77;8.73;;;;;;;;;;6184904;23;19997;-61
2021/05/12 04:33:47;;;;;;;15.50;7.40;;;;;;;;;;6184816;23;20001;-61
2021/05/12 04:36:13;;;;;;;21.10;8.87;;;;;;;;;;6184756;23;20376;-61
2021/05/12 04:38:40;;;;;;;19.30;8.07;;;;;;;;;;6184544;23;20340;-61
2021/05/12 04:41:07;;;;;;;12.60;7.20;;;;;;;;;;6186627;23;19997;-61
2021/05/12 04:43:34;;;;;;;12.03;7.00;;;;;;;;;;6186624;23;20402;-60
2021/05/12 04:46:03;;;;;;;14.20;7.50;;;;;;;;;;6185526;23;20416;-61
2021/05/12 04:48:30;;;;;;;14.97;7.40;;;;;;;;;;6188022;22;20089;-61
2021/05/12 04:50:58;;;;;;;14.50;7.90;;;;;;;;;;6186665;23;20425;-61
2021/05/12 04:53:25;;;;;;;14.20;7.23;;;;;;;;;;6186929;23;20051;-60
2021/05/12 04:55:52;;;;;;;15.47;7.60;;;;;;;;;;6186676;23;20052;-60
2021/05/12 04:58:20;;;;;;;16.33;6.87;;;;;;;;;;6186919;23;20016;-60
2021/05/12 05:00:47;;;;;;;15.80;8.70;;;;;;;;;;6186520;23;20001;-60
2021/05/12 05:03:14;;;;;;;15.10;8.47;;;;;;;;;;6186466;23;20337;-60
2021/05/12 05:05:41;;;;;;;15.20;7.37;;;;;;;;;;6186607;23;20001;-60
2021/05/12 05:08:08;;;;;;;13.67;6.90;;;;;;;;;;6186454;23;20012;-60
2021/05/12 05:10:34;;;;;;;11.07;6.00;;;;;;;;;;6186635;23;19997;-60
2021/05/12 05:13:01;;;;;;;14.63;6.67;;;;;;;;;;6186514;23;20016;-60
2021/05/12 05:15:28;;;;;;;11.30;5.77;;;;;;;;;;6186554;23;20001;-60
2021/05/12 05:17:57;;;;;;;19.00;8.03;;;;;;;;;;6186811;23;20520;-60
2021/05/12 05:20:25;;;;;;;9.97;7.50;;;;;;;;;;6186324;23;20027;-61
2021/05/12 05:22:52;;;;;;;14.50;7.20;;;;;;;;;;6186432;23;20013;-60
2021/05/12 05:25:19;;;;;;;10.77;6.23;;;;;;;;;;6186646;23;20002;-60
2021/05/12 05:27:46;;;;;;;10.87;5.83;;;;;;;;;;6186620;23;20001;-60
2021/05/12 05:30:13;;;;;;;12.30;6.77;;;;;;;;;;6160303;23;20009;-61
2021/05/12 05:32:40;;;;;;;14.50;7.00;;;;;;;;;;6160252;23;20356;-61
2021/05/12 05:35:07;;;;;;;11.30;6.70;;;;;;;;;;6186481;23;20000;-61
2021/05/12 05:37:34;;;;;;;11.20;6.87;;;;;;;;;;6186251;23;20005;-60
2021/05/12 05:40:00;;;;;;;12.80;6.70;;;;;;;;;;6186425;23;20014;-60
2021/05/12 05:42:27;;;;;;;13.07;6.00;;;;;;;;;;6186373;23;20391;-60
2021/05/12 05:44:54;;;;;;;11.00;6.20;;;;;;;;;;6186212;23;20005;-60
2021/05/12 05:47:21;;;;;;;13.80;6.80;;;;;;;;;;6186001;23;20005;-61
2021/05/12 05:49:48;;;;;;;12.73;7.13;;;;;;;;;;6187860;22;20016;-60
2021/05/12 05:52:15;;;;;;;13.00;6.80;;;;;;;;;;6185627;23;20005;-60
2021/05/12 05:54:42;;;;;;;8.83;6.30;;;;;;;;;;6186251;23;20298;-60
2021/05/12 05:57:14;;;;;;;11.53;5.97;;;;;;;;;;6186193;23;20005;-60
2021/05/12 05:59:41;;;;;;;11.43;7.17;;;;;;;;;;6186156;23;20005;-60
2021/05/12 06:02:08;;;;;;;12.87;6.73;;;;;;;;;;6186145;23;20016;-60
2021/05/12 06:04:35;;;;;;;11.63;7.63;;;;;;;;;;6186454;23;20001;-60
2021/05/12 06:07:02;;;;;;;18.80;8.70;;;;;;;;;;6186065;23;20001;-60
2021/05/12 06:09:29;;;;;;;11.93;8.67;;;;;;;;;;6186033;23;20001;-60
2021/05/12 06:11:56;;;;;;;13.53;8.13;;;;;;;;;;6185988;23;20009;-60
2021/05/12 06:14:23;;;;;;;13.83;7.87;;;;;;;;;;6186051;23;20005;-60
2021/05/12 06:16:51;;;;;;;14.87;8.97;;;;;;;;;;6185790;23;20005;-59
2021/05/12 06:19:17;;;;;;;14.50;9.20;;;;;;;;;;6185977;23;20028;-59
2021/05/12 06:21:44;;;;;;;26.90;10.03;;;;;;;;;;6185656;23;20439;-59
2021/05/12 06:24:11;;;;;;;16.13;9.53;;;;;;;;;;6185974;23;20001;-59
2021/05/12 06:26:39;;;;;;;11.27;8.50;;;;;;;;;;6185697;23;20005;-60
2021/05/12 06:29:06;;;;;;;13.70;8.30;;;;;;;;;;6185804;23;20001;-59
2021/05/12 06:31:34;;;;;;;14.13;8.87;;;;;;;;;;6185789;23;20473;-60
2021/05/12 06:34:02;;;;;;;14.30;7.77;;;;;;;;;;6185995;23;20009;-59
2021/05/12 06:36:29;;;;;;;12.60;8.00;;;;;;;;;;6185734;23;20072;-59
2021/05/12 06:38:55;;;;;;;11.33;7.87;;;;;;;;;;6185798;23;20003;-59
2021/05/12 06:41:23;;;;;;;13.00;8.20;;;;;;;;;;6185621;23;20357;-59
2021/05/12 06:43:50;;;;;;;19.23;9.57;;;;;;;;;;6185547;23;20012;-59
2021/05/12 06:46:17;;;;;;;15.47;8.90;;;;;;;;;;6185552;23;20410;-59
2021/05/12 06:48:44;;;;;;;13.57;8.80;;;;;;;;;;6186872;22;20444;-59
2021/05/12 06:51:12;;;;;;;13.10;9.10;;;;;;;;;;6185727;23;20008;-59
2021/05/12 06:53:39;;;;;;;13.83;10.50;;;;;;;;;;6185517;23;20012;-58
2021/05/12 06:56:06;;;;;;;11.97;8.90;;;;;;;;;;6185532;23;20005;-59
2021/05/12 06:58:34;;;;;;;15.37;9.77;;;;;;;;;;6185575;23;20302;-59
2021/05/12 07:01:01;;;;;;;14.30;9.30;;;;;;;;;;6185488;23;20440;-59
2021/05/12 07:03:28;;;;;;;16.50;10.03;;;;;;;;;;6185283;23;20023;-59
2021/05/12 07:05:55;;;;;;;15.10;11.77;;;;;;;;;;6185522;23;20332;-59
2021/05/12 07:08:22;;;;;;;16.50;11.47;;;;;;;;;;6185494;23;20072;-59
2021/05/12 07:10:49;;;;;;;13.57;11.40;;;;;;;;;;6185298;23;20012;-59
2021/05/12 07:13:17;;;;;;;12.37;10.13;;;;;;;;;;6185542;23;20449;-59
2021/05/12 07:15:43;;;;;;;15.87;10.33;;;;;;;;;;6185532;23;20375;-59
2021/05/12 07:18:10;;;;;;;14.40;10.33;;;;;;;;;;6185459;23;20331;-59
2021/05/12 07:20:37;;;;;;;14.43;9.50;;;;;;;;;;6185510;23;20008;-59
2021/05/12 07:23:05;;;;;;;17.67;9.60;;;;;;;;;;6185244;23;20013;-59
2021/05/12 07:25:32;;;;;;;15.67;10.07;;;;;;;;;;6185269;23;20077;-59
2021/05/12 07:27:59;;;;;;;15.23;10.13;;;;;;;;;;6185325;23;20005;-59
2021/05/12 07:30:27;;;;;;;13.37;8.40;;;;;;;;;;6185342;23;20005;-59
2021/05/12 07:32:53;;;;;;;12.27;8.50;;;;;;;;;;6185301;23;20368;-59
2021/05/12 07:35:20;;;;;;;14.30;10.03;;;;;;;;;;6185400;23;19997;-59
2021/05/12 07:37:47;;;;;;;14.33;8.63;;;;;;;;;;6185375;23;20011;-59
2021/05/12 07:40:15;;;;;;;14.20;9.60;;;;;;;;;;6185215;23;20005;-59
2021/05/12 07:42:44;;;;;;;13.47;9.17;;;;;;;;;;6185238;23;20009;-59
2021/05/12 07:45:11;;;;;;;13.80;9.77;;;;;;;;;;6185199;23;20464;-59
2021/05/12 07:47:38;;;;;;;13.80;9.10;;;;;;;;;;6184957;23;20110;-59
2021/05/12 07:50:08;;;;;;;17.10;10.00;;;;;;;;;;6186519;22;20017;-60
2021/05/12 07:52:35;;;;;;;20.77;11.03;;;;;;;;;;6185250;23;20001;-60
2021/05/12 07:55:01;;;;;;;16.10;10.03;;;;;;;;;;6185043;23;20012;-59
2021/05/12 07:57:28;;;;;;;14.93;10.20;;;;;;;;;;6185176;23;20432;-59
2021/05/12 07:59:55;;;;;;;15.93;10.57;;;;;;;;;;6185427;23;20076;-60
2021/05/12 08:02:22;;;;;;;15.50;10.00;;;;;;;;;;6185144;23;20009;-59
2021/05/12 08:04:49;;;;;;;19.33;11.10;;;;;;;;;;6185220;23;20032;-60
2021/05/12 08:07:16;;;;;;;18.30;10.40;;;;;;;;;;6185126;23;20132;-60
2021/05/12 08:09:42;;;;;;;15.87;9.80;;;;;;;;;;6185208;23;20112;-59
2021/05/12 08:12:09;;;;;;;22.03;12.03;;;;;;;;;;6185110;23;20005;-60
2021/05/12 08:14:36;;;;;;;20.53;11.30;;;;;;;;;;6186111;23;20419;-60
2021/05/12 08:17:03;;;;;;;21.70;10.87;;;;;;;;;;6187052;23;20396;-60
2021/05/12 08:19:30;;;;;;;27.57;13.13;;;;;;;;;;6187055;23;20001;-60
2021/05/12 08:21:56;;;;;;;24.70;12.17;;;;;;;;;;6185393;23;20009;-60
2021/05/12 08:24:23;;;;;;;16.43;11.30;;;;;;;;;;6186996;23;20005;-60
2021/05/12 08:26:50;;;;;;;23.00;12.10;;;;;;;;;;6187012;23;20005;-59
2021/05/12 08:29:17;;;;;;;20.30;11.73;;;;;;;;;;6187043;23;20071;-60
2021/05/12 08:31:46;;;;;;;15.07;10.47;;;;;;;;;;6187242;23;20009;-59
2021/05/12 08:34:13;;;;;;;14.57;10.83;;;;;;;;;;6186903;23;20012;-60
2021/05/12 08:36:39;;;;;;;13.97;9.70;;;;;;;;;;6186872;23;20011;-59
2021/05/12 08:39:08;;;;;;;18.20;9.27;;;;;;;;;;6186895;23;20005;-59
2021/05/12 08:41:35;;;;;;;16.50;9.07;;;;;;;;;;6186890;23;19997;-60
2021/05/12 08:44:06;;;;;;;13.83;9.83;;;;;;;;;;6187005;23;20035;-59
2021/05/12 08:46:33;;;;;;;16.17;10.30;;;;;;;;;;6186764;23;20001;-58
2021/05/12 08:49:00;;;;;;;14.60;8.57;;;;;;;;;;6188185;22;20318;-59
2021/05/12 08:51:27;;;;;;;12.13;8.43;;;;;;;;;;6186895;23;20004;-59
2021/05/12 08:53:57;;;;;;;11.87;8.57;;;;;;;;;;6186871;23;20428;-59
2021/05/12 08:56:24;;;;;;;13.00;9.00;;;;;;;;;;6186562;23;20360;-58
2021/05/12 08:58:51;;;;;;;13.03;8.37;;;;;;;;;;6186669;23;20017;-59
2021/05/12 09:01:18;;;;;;;13.13;8.63;;;;;;;;;;6186680;23;20001;-59
2021/05/12 09:03:47;;;;;;;12.33;8.80;;;;;;;;;;6186675;23;20009;-59
2021/05/12 09:06:14;;;;;;;13.27;8.60;;;;;;;;;;6186645;23;20048;-59
2021/05/12 09:08:47;;;;;;;12.13;7.97;;;;;;;;;;6186424;23;20011;-59
2021/05/12 09:11:17;;;;;;;12.00;8.20;;;;;;;;;;6186130;23;20009;-59
2021/05/12 09:13:47;;;;;;;15.13;10.23;;;;;;;;;;6186696;23;20012;-59
2021/05/12 09:16:17;;;;;;;11.77;8.63;;;;;;;;;;6186576;23;20009;-59
2021/05/12 09:18:44;;;;;;;11.80;9.10;;;;;;;;;;6186490;23;20332;-59
2021/05/12 09:21:12;;;;;;;10.97;8.23;;;;;;;;;;6186416;23;20009;-59
2021/05/12 09:23:40;;;;;;;12.80;9.07;;;;;;;;;;6186900;23;20116;-58
2021/05/12 09:26:14;;;;;;;12.93;8.43;;;;;;;;;;6186374;23;20001;-59
2021/05/12 09:28:41;;;;;;;11.82;8.57;;;;;;;;;;6186714;23;20072;-59
2021/05/12 09:31:11;;;;;;;14.53;9.07;;;;;;;;;;6186449;23;20001;-59
2021/05/12 09:33:40;;;;;;;14.40;9.33;;;;;;;;;;6186394;23;20002;-59
2021/05/12 09:36:08;;;;;;;16.90;8.93;;;;;;;;;;6186745;23;20001;-59
2021/05/12 09:38:34;;;;;;;15.77;9.60;;;;;;;;;;6186363;23;20009;-59
2021/05/12 09:41:02;;;;;;;12.23;8.97;;;;;;;;;;6186417;23;20120;-59
2021/05/12 09:43:30;;;;;;;14.80;8.20;;;;;;;;;;6186166;23;20068;-59
2021/05/12 09:46:17;;;;;;;16.47;9.27;;;;;;;;;;6186161;23;20490;-59
2021/05/12 09:48:47;;;;;;;14.90;11.63;;;;;;;;;;6187363;22;20371;-60
2021/05/12 09:51:18;;;;;;;16.97;13.23;;;;;;;;;;6186221;23;20017;-59
2021/05/12 09:54:04;;;;;;;19.30;13.33;;;;;;;;;;6186340;23;20020;-60
2021/05/12 09:56:39;;;;;;;19.97;14.27;;;;;;;;;;6186162;23;20440;-61
2021/05/12 09:59:10;;;;;;;18.57;13.80;;;;;;;;;;6186078;23;20040;-61
2021/05/12 10:01:44;;;;;;;23.13;14.20;;;;;;;;;;6186080;23;20321;-62
2021/05/12 10:04:21;;;;;;;21.33;12.87;;;;;;;;;;6186103;23;20298;-61
2021/05/12 10:06:47;;;;;;;21.83;12.87;;;;;;;;;;6186068;23;19997;-61
2021/05/12 10:09:25;;;;;;;21.90;13.60;;;;;;;;;;6185969;23;20495;-61
2021/05/12 10:12:02;;;;;;;17.10;12.83;;;;;;;;;;6185871;23;20005;-60
2021/05/12 10:14:28;;;;;;;20.03;12.33;;;;;;;;;;6185890;23;20124;-60
2021/05/12 10:16:56;;;;;;;14.60;11.93;;;;;;;;;;6185916;23;20001;-59
2021/05/12 10:19:23;;;;;;;15.43;10.63;;;;;;;;;;6185993;23;20037;-60
2021/05/12 10:21:50;;;;;;;17.17;11.67;;;;;;;;;;6186133;23;20071;-59
2021/05/12 10:24:17;;;;;;;20.53;10.93;;;;;;;;;;6185904;23;20016;-59
2021/05/12 10:26:44;;;;;;;14.93;9.93;;;;;;;;;;6185756;23;20328;-59
2021/05/12 10:29:15;;;;;;;11.87;7.30;;;;;;;;;;6185972;23;20055;-59
2021/05/12 10:31:42;;;;;;;12.10;6.33;;;;;;;;;;6185829;23;20011;-59
2021/05/12 10:34:09;;;;;;;12.33;7.27;;;;;;;;;;6185734;23;20009;-60
2021/05/12 10:36:36;;;;;;;12.30;6.80;;;;;;;;;;6185624;23;19998;-61
2021/05/12 10:39:04;;;;;;;18.60;7.27;;;;;;;;;;6185475;23;20021;-62
2021/05/12 10:41:37;;;;;;;13.83;6.33;;;;;;;;;;6185732;23;20001;-62
2021/05/12 10:44:11;;;;;;;7.80;4.43;;;;;;;;;;6185685;23;20405;-61
2021/05/12 10:46:59;;;;;;;9.15;3.60;;;;;;;;;;6185524;23;20329;-61
2021/05/12 10:49:26;;;;;;;5.93;3.40;;;;;;;;;;6187197;22;20013;-61
2021/05/12 10:51:53;;;;;;;7.10;3.57;;;;;;;;;;6185460;23;20080;-60
2021/05/12 10:54:49;;;;;;;6.57;2.83;;;;;;;;;;6185527;23;20008;-60
2021/05/12 10:57:15;;;;;;;;;;;;;;;;;;6167231;23;20072;-60
2021/05/12 10:59:52;;;;;;;5.80;2.53;;;;;;;;;;6185546;23;20258;-60
2021/05/12 11:02:19;;;;;;;8.20;3.10;;;;;;;;;;6185474;23;20013;-60
2021/05/12 11:05:02;;;;;;;7.57;3.10;;;;;;;;;;6185621;23;20073;-60
2021/05/12 11:07:33;;;;;;;7.30;2.97;;;;;;;;;;6185517;23;20076;-60
2021/05/12 11:10:00;;;;;;;6.00;2.93;;;;;;;;;;6185558;23;20044;-59
2021/05/12 11:12:36;;;;;;;7.03;2.53;;;;;;;;;;6185572;23;20001;-59
2021/05/12 11:15:05;;;;;;;5.83;2.80;;;;;;;;;;6185497;23;20001;-59
2021/05/12 11:17:58;;;;;;;4.80;2.90;;;;;;;;;;6185613;23;20005;-59
2021/05/12 11:20:25;;;;;;;5.13;2.80;;;;;;;;;;6181698;23;20012;-59
2021/05/12 11:23:05;;;;;;;5.50;2.63;;;;;;;;;;6185189;23;20088;-58
2021/05/12 11:25:41;;;;;;;5.27;2.47;;;;;;;;;;6185298;23;20013;-58
2021/05/12 11:33:22;;;;;;;9.73;3.60;;;;;;;;;;6185429;23;20392;-58
2021/05/12 11:35:53;;;;;;;12.33;4.37;;;;;;;;;;6185404;23;20047;-58
2021/05/12 11:38:20;;;;;;;10.60;5.60;;;;;;;;;;6185312;23;20009;-58
2021/05/12 11:40:59;;;;;;;11.00;5.80;;;;;;;;;;6185123;23;20001;-58
2021/05/12 11:43:36;;;;;;;14.80;5.80;;;;;;;;;;6185228;23;20020;-58
2021/05/12 11:46:21;;;;;;;10.53;6.00;;;;;;;;;;6185267;23;20005;-58
2021/05/12 11:48:53;;;;;;;13.88;6.85;;;;;;;;;;6159072;23;20009;-58
2021/05/12 11:51:45;;;;;;;17.60;7.73;;;;;;;;;;6183928;22;20017;-58
2021/05/12 11:54:17;;;;;;;13.33;7.37;;;;;;;;;;6185201;23;20422;-58
2021/05/12 11:56:45;;;;;;;12.20;7.30;;;;;;;;;;6184965;23;20139;-58
2021/05/12 11:59:18;;;;;;;22.13;6.10;;;;;;;;;;6185101;23;20104;-58
2021/05/12 12:01:48;;;;;;;8.13;4.63;;;;;;;;;;6184947;23;20036;-58
2021/05/12 12:04:27;;;;;;;9.30;5.67;;;;;;;;;;6185305;23;20085;-58
2021/05/12 12:06:54;;;;;;;8.87;5.23;;;;;;;;;;6185328;23;20009;-58
2021/05/12 12:09:21;;;;;;;12.93;5.40;;;;;;;;;;6185241;23;20001;-59
2021/05/12 12:11:48;;;;;;;9.70;6.00;;;;;;;;;;6185014;23;20009;-58
2021/05/12 12:14:15;;;;;;;9.70;5.43;;;;;;;;;;6185134;23;20269;-60
2021/05/12 12:16:46;;;;;;;8.83;5.70;;;;;;;;;;6184977;23;20337;-59
2021/05/12 12:19:16;;;;;;;9.97;5.53;;;;;;;;;;6185231;23;20001;-60
2021/05/12 12:21:45;;;;;;;10.23;5.83;;;;;;;;;;6184829;23;20486;-60
2021/05/12 12:24:14;;;;;;;8.07;4.43;;;;;;;;;;6158565;23;20016;-59
2021/05/12 12:26:44;;;;;;;11.03;5.47;;;;;;;;;;6184477;23;20012;-60
2021/05/12 12:29:12;;;;;;;11.13;5.67;;;;;;;;;;6184587;23;20012;-59
2021/05/12 12:31:44;;;;;;;11.63;5.00;;;;;;;;;;6184632;23;20035;-59
2021/05/12 12:34:11;;;;;;;9.50;5.43;;;;;;;;;;6185114;23;20416;-60
2021/05/12 12:36:50;;;;;;;12.73;5.33;;;;;;;;;;6184828;23;20009;-60
2021/05/12 12:39:18;;;;;;;8.33;5.47;;;;;;;;;;6185041;23;20005;-60
2021/05/12 12:41:52;;;;;;;11.00;6.07;;;;;;;;;;6184801;23;20063;-59
2021/05/12 12:44:21;;;;;;;8.98;5.45;;;;;;;;;;6184910;23;20035;-59
2021/05/12 12:46:58;;;;;;;8.67;4.47;;;;;;;;;;6184874;23;20072;-59
2021/05/12 12:49:35;;;;;;;7.00;3.67;;;;;;;;;;6186409;22;20314;-60
2021/05/12 12:52:12;;;;;;;7.00;4.00;;;;;;;;;;6184921;23;20462;-59
2021/05/12 12:55:01;;;;;;;10.63;4.47;;;;;;;;;;6184813;23;20005;-59
2021/05/12 12:57:38;;;;;;;6.77;4.23;;;;;;;;;;6184939;23;20416;-59
2021/05/12 13:00:05;;;;;;;9.00;3.97;;;;;;;;;;6185099;23;20009;-59
2021/05/12 13:02:31;;;;;;;5.90;3.80;;;;;;;;;;6186657;23;20016;-59
2021/05/12 13:05:34;;;;;;;7.30;4.80;;;;;;;;;;6186602;23;20012;-59
2021/05/12 13:08:13;;;;;;;6.43;3.37;;;;;;;;;;6095484;23;20077;-59
2021/05/12 13:10:41;;;;;;;5.50;3.30;;;;;;;;;;6177055;23;20027;-59
2021/05/12 13:13:08;;;;;;;6.97;4.03;;;;;;;;;;6186721;23;20001;-59
2021/05/12 13:15:36;;;;;;;5.53;3.43;;;;;;;;;;6186668;23;20059;-59
2021/05/12 13:18:04;;;;;;;5.10;3.47;;;;;;;;;;6186414;23;20005;-59
2021/05/12 13:20:32;;;;;;;7.27;3.60;;;;;;;;;;6186618;23;20008;-59
2021/05/12 13:23:03;;;;;;;4.50;3.00;;;;;;;;;;6186341;23;20096;-59
2021/05/12 13:25:30;;;;;;;5.03;3.67;;;;;;;;;;6186358;23;20028;-59
2021/05/12 13:27:57;;;;;;;5.13;2.90;;;;;;;;;;6186283;23;20029;-59
2021/05/12 13:30:24;;;;;;;5.30;3.20;;;;;;;;;;6186314;23;20012;-59
2021/05/12 13:32:51;;;;;;;4.17;2.77;;;;;;;;;;6186245;23;20084;-59
2021/05/12 13:35:18;;;;;;;5.33;3.23;;;;;;;;;;6186499;23;19997;-59
2021/05/12 13:37:49;;;;;;;5.27;3.10;;;;;;;;;;6186463;23;20012;-59
2021/05/12 13:40:16;;;;;;;8.37;5.63;;;;;;;;;;6186277;23;20012;-59
2021/05/12 13:42:43;;;;;;;10.13;6.60;;;;;;;;;;6159914;23;20017;-59
2021/05/12 13:45:11;;;;;;;11.30;7.13;;;;;;;;;;6186436;23;20036;-58
2021/05/12 13:47:39;;;;;;;10.00;6.53;;;;;;;;;;6185981;23;20040;-58
2021/05/12 13:50:07;;;;;;;9.30;6.00;;;;;;;;;;6187865;22;20017;-58
2021/05/12 13:52:45;;;;;;;10.00;6.47;;;;;;;;;;6186167;23;20047;-58
2021/05/12 13:55:22;;;;;;;7.73;5.33;;;;;;;;;;6186194;23;20072;-57
2021/05/12 13:58:21;;;;;;;8.00;5.20;;;;;;;;;;6186128;23;20009;-58
2021/05/12 14:01:46;;;;;;;7.50;5.03;;;;;;;;;;6183976;23;20009;-57
2021/05/12 14:03:29;;;;;;;8.17;5.30;;;;;;;;;;6185820;23;20021;-58
2021/05/12 14:05:56;;;;;;;9.17;5.00;;;;;;;;;;6185943;23;20320;-58
2021/05/12 14:08:24;;;;;;;7.93;4.70;;;;;;;;;;6186377;23;20325;-58
2021/05/12 14:10:51;;;;;;;8.60;5.17;;;;;;;;;;6186058;23;20428;-58
2021/05/12 14:13:22;;;;;;;9.73;6.43;;;;;;;;;;6185451;23;20009;-58
2021/05/12 14:18:43;;;;;;;9.63;5.97;;;;;;;;;;6129146;23;20008;-59
2021/05/12 14:21:10;;;;;;;10.17;5.10;;;;;;;;;;6186002;23;20012;-59
2021/05/12 14:23:37;;;;;;;8.00;4.87;;;;;;;;;;6185918;23;20009;-58
2021/05/12 14:26:05;;;;;;;6.50;4.50;;;;;;;;;;6185742;23;20010;-59
2021/05/12 14:28:52;;;;;;;5.83;3.93;;;;;;;;;;6185928;23;20011;-58
2021/05/12 14:31:18;;;;;;;5.10;3.67;;;;;;;;;;6185695;23;20440;-59
2021/05/12 14:33:47;;;;;;;5.83;3.37;;;;;;;;;;6185942;23;20039;-58
2021/05/12 14:36:14;;;;;;;6.80;3.27;;;;;;;;;;6185580;23;20005;-58
2021/05/12 14:38:41;;;;;;;4.53;3.20;;;;;;;;;;6185610;23;20113;-58
2021/05/12 14:41:08;;;;;;;5.90;2.73;;;;;;;;;;6185580;23;20009;-59
2021/05/12 14:43:35;;;;;;;3.70;2.53;;;;;;;;;;6186078;23;20013;-59
2021/05/12 14:46:02;;;;;;;4.40;2.50;;;;;;;;;;6185779;23;20001;-59
2021/05/12 14:48:32;;;;;;;4.87;2.97;;;;;;;;;;6185555;23;20067;-58
2021/05/12 14:51:02;;;;;;;4.37;2.80;;;;;;;;;;6187047;22;20017;-58
2021/05/12 14:53:32;;;;;;;5.90;2.50;;;;;;;;;;6186243;23;20005;-59